createdAt,value
2023-01-27T00:02:17.425Z,101060.94
2023-01-27T00:06:19.050Z,101070.69
2023-01-27T00:10:20.924Z,101068.91
2023-01-27T00:14:23.301Z,101075.84
2023-01-27T00:18:25.679Z,101057.94
2023-01-27T00:22:45.979Z,101061.00
2023-01-27T00:26:47.490Z,101044.94
2023-01-27T00:30:52.919Z,101051.47
2023-01-27T00:34:54.537Z,101050.44
2023-01-27T00:38:56.612Z,101045.75
2023-01-27T00:42:58.149Z,101048.91
2023-01-27T00:47:00.035Z,101037.56
2023-01-27T00:51:01.952Z,101042.84
2023-01-27T00:55:03.638Z,101036.94
2023-01-27T00:59:05.360Z,101046.31
2023-01-27T01:03:06.970Z,101034.34
2023-01-27T01:07:08.505Z,101034.19
2023-01-27T01:11:13.815Z,101034.19
2023-01-27T01:15:15.721Z,101040.88
2023-01-27T01:19:17.318Z,101037.56
2023-01-27T01:23:18.824Z,101039.59
2023-01-27T01:27:20.457Z,101044.75
2023-01-27T01:31:22.169Z,101052.31
2023-01-27T01:35:27.819Z,101048.38
2023-01-27T01:39:30.483Z,101044.41
2023-01-27T01:43:32.105Z,101050.44
2023-01-27T01:47:33.654Z,101045.31
2023-01-27T01:51:39.942Z,101043.41
2023-01-27T01:55:41.920Z,101050.75
2023-01-27T02:00:01.390Z,101049.09
2023-01-27T02:04:07.711Z,101036.13
2023-01-27T02:08:21.262Z,101036.50
2023-01-27T02:12:23.139Z,101026.16
2023-01-27T02:16:25.038Z,101025.53
2023-01-27T02:20:36.770Z,101027.19
2023-01-27T02:24:47.360Z,101027.41
2023-01-27T02:29:00.770Z,101025.66
2023-01-27T02:33:02.602Z,101022.97
2023-01-27T02:37:09.353Z,101029.78
2023-01-27T02:41:19.896Z,101032.84
2023-01-27T02:45:21.856Z,101035.47
2023-01-27T02:49:23.614Z,101041.44
2023-01-27T02:53:25.448Z,101029.06
2023-01-27T02:57:27.061Z,101021.13
2023-01-27T03:01:52.177Z,101017.44
2023-01-27T03:05:54.605Z,101024.91
2023-01-27T03:09:57.215Z,101027.06
2023-01-27T03:13:58.751Z,101034.13
2023-01-27T03:18:13.432Z,101034.75
2023-01-27T03:22:15.287Z,101033.00
2023-01-27T03:26:17.797Z,101030.81
2023-01-27T03:30:23.644Z,101033.97
2023-01-27T03:34:38.463Z,101042.56
2023-01-27T03:39:05.373Z,101045.09
2023-01-27T03:43:26.158Z,101037.78
2023-01-27T03:47:27.728Z,101041.16
2023-01-27T03:51:29.373Z,101049.63
2023-01-27T03:55:31.594Z,101037.41
2023-01-27T03:59:33.297Z,101044.59
2023-01-27T04:03:54.824Z,101049.59
2023-01-27T04:07:56.379Z,101060.84
2023-01-27T04:12:00.634Z,101053.38
2023-01-27T04:16:02.357Z,101055.00
2023-01-27T04:20:04.381Z,101055.63
2023-01-27T04:24:16.649Z,101060.53
2023-01-27T04:28:29.167Z,101050.56
2023-01-27T04:32:39.029Z,101055.09
2023-01-27T04:36:41.570Z,101062.91
2023-01-27T04:40:43.435Z,101064.44
2023-01-27T04:44:45.073Z,101073.66
2023-01-27T04:48:46.664Z,101063.31
2023-01-27T04:52:48.274Z,101068.75
2023-01-27T04:56:59.885Z,101070.53
2023-01-27T05:01:01.492Z,101072.53
2023-01-27T05:05:04.715Z,101068.25
2023-01-27T05:09:06.257Z,101074.19
2023-01-27T05:13:07.797Z,101069.13
2023-01-27T05:17:09.457Z,101082.75
2023-01-27T05:21:17.091Z,101079.47
2023-01-27T05:25:18.701Z,101071.50
2023-01-27T05:29:20.378Z,101073.69
2023-01-27T05:33:21.949Z,101069.00
2023-01-27T05:37:23.482Z,101081.88
2023-01-27T05:41:25.453Z,101080.63
2023-01-27T05:45:27.018Z,101074.81
2023-01-27T05:49:28.596Z,101079.63
2023-01-27T05:53:30.520Z,101081.38
2023-01-27T05:57:32.064Z,101091.84
2023-01-27T06:01:34.936Z,101104.72
2023-01-27T06:05:36.553Z,101098.03
2023-01-27T06:09:38.814Z,101100.69
2023-01-27T06:13:40.640Z,101102.34
2023-01-27T06:17:42.219Z,101103.84
2023-01-27T06:21:43.767Z,101097.78
2023-01-27T06:25:47.704Z,101099.03
2023-01-27T06:29:49.287Z,101105.97
2023-01-27T06:33:51.306Z,101101.16
2023-01-27T06:37:53.022Z,101108.34
2023-01-27T06:41:54.631Z,101106.69
2023-01-27T06:45:59.460Z,101111.09
2023-01-27T06:50:01.319Z,101104.63
2023-01-27T06:54:03.041Z,101107.44
2023-01-27T06:58:04.610Z,101111.97
2023-01-27T07:02:06.330Z,101123.41
2023-01-27T07:06:08.614Z,101134.47
2023-01-27T07:10:10.704Z,101139.91
2023-01-27T07:14:12.243Z,101143.31
2023-01-27T07:18:14.267Z,101148.25
2023-01-27T07:22:16.031Z,101159.59
2023-01-27T07:26:24.882Z,101161.59
2023-01-27T07:30:28.426Z,101157.56
2023-01-27T07:34:29.985Z,101167.03
2023-01-27T07:38:31.688Z,101170.69
2023-01-27T07:42:33.304Z,101164.75
2023-01-27T07:46:34.996Z,101181.81
2023-01-27T07:50:36.655Z,101185.31
2023-01-27T07:54:38.184Z,101181.81
2023-01-27T07:58:40.085Z,101190.59
2023-01-27T08:02:41.629Z,101190.34
2023-01-27T08:06:43.164Z,101196.75
2023-01-27T08:10:49.175Z,101197.91
2023-01-27T08:14:50.764Z,101205.72
2023-01-27T08:18:53.819Z,101199.88
2023-01-27T08:22:55.788Z,101202.56
2023-01-27T08:26:57.433Z,101203.28
2023-01-27T08:31:09.452Z,101210.78
2023-01-27T08:35:11.049Z,101212.53
2023-01-27T08:39:12.649Z,101205.97
2023-01-27T08:43:16.579Z,101202.03
2023-01-27T08:47:18.169Z,101215.66
2023-01-27T08:51:19.826Z,101209.44
2023-01-27T08:55:21.559Z,101198.59
2023-01-27T08:59:23.161Z,101216.63
2023-01-27T09:03:26.003Z,101202.69
2023-01-27T09:07:27.869Z,101206.75
2023-01-27T09:11:29.570Z,101221.16
2023-01-27T09:15:31.637Z,101208.91
2023-01-27T09:19:33.249Z,101221.59
2023-01-27T09:23:34.914Z,101229.25
2023-01-27T09:27:39.535Z,101229.50
2023-01-27T09:31:41.714Z,101220.25
2023-01-27T09:35:52.639Z,101230.69
2023-01-27T09:39:58.310Z,101240.50
2023-01-27T09:44:02.856Z,101237.97
2023-01-27T09:48:41.544Z,101243.91
2023-01-27T09:53:05.256Z,101254.16
2023-01-27T09:57:22.113Z,101253.78
2023-01-27T10:01:46.631Z,101246.59
2023-01-27T10:06:19.787Z,101253.22
2023-01-27T10:10:33.033Z,101245.97
2023-01-27T10:14:55.585Z,101247.75
2023-01-27T10:19:06.295Z,101245.97
2023-01-27T10:23:12.445Z,101233.31
2023-01-27T10:27:20.737Z,101238.97
2023-01-27T10:31:29.630Z,101233.25
2023-01-27T10:35:47.987Z,101234.22
2023-01-27T10:40:04.620Z,101224.47
2023-01-27T10:44:44.725Z,101208.97
2023-01-27T10:48:52.339Z,101212.69
2023-01-27T10:52:57.783Z,101216.22
2023-01-27T10:57:06.017Z,101212.94
2023-01-27T11:01:20.742Z,101208.56
2023-01-27T11:05:46.017Z,101207.72
2023-01-27T11:10:01.026Z,101202.66
2023-01-27T11:14:10.731Z,101207.63
2023-01-27T11:18:16.069Z,101206.41
2023-01-27T11:22:22.641Z,101194.94
2023-01-27T11:26:30.281Z,101187.69
2023-01-27T11:30:42.682Z,101191.44
2023-01-27T11:34:54.175Z,101192.44
2023-01-27T11:38:58.022Z,101186.69
2023-01-27T11:43:00.703Z,101187.78
2023-01-27T11:47:04.284Z,101182.16
2023-01-27T11:51:06.351Z,101184.16
2023-01-27T11:55:15.874Z,101186.56
2023-01-27T11:59:25.909Z,101175.66
2023-01-27T12:03:33.114Z,101178.75
2023-01-27T12:07:45.517Z,101176.31
2023-01-27T12:11:47.114Z,101180.41
2023-01-27T12:15:58.627Z,101175.31
2023-01-27T12:20:19.653Z,101176.22
2023-01-27T12:24:27.544Z,101176.66
2023-01-27T12:28:38.551Z,101181.63
2023-01-27T12:32:42.930Z,101169.81
2023-01-27T12:36:44.810Z,101175.34
2023-01-27T12:40:48.087Z,101172.06
2023-01-27T12:44:49.960Z,101180.53
2023-01-27T12:48:54.640Z,101170.81
2023-01-27T12:53:13.918Z,101162.66
2023-01-27T12:57:19.611Z,101168.81
2023-01-27T13:01:41.157Z,101167.06
2023-01-27T13:05:43.765Z,101165.09
2023-01-27T13:10:06.891Z,101168.06
2023-01-27T13:14:16.999Z,101168.50
2023-01-27T13:18:21.908Z,101159.47
2023-01-27T13:22:26.619Z,101172.72
2023-01-27T13:26:34.823Z,101164.53
2023-01-27T13:30:40.364Z,101167.28
2023-01-27T13:35:06.688Z,101166.97
2023-01-27T13:39:23.475Z,101175.56
2023-01-27T13:43:32.644Z,101178.53
2023-01-27T13:47:57.242Z,101170.50
2023-01-27T13:51:58.901Z,101174.47
2023-01-27T13:56:19.290Z,101178.19
2023-01-27T14:00:43.497Z,101171.47
2023-01-27T14:05:13.093Z,101170.59
2023-01-27T14:09:22.102Z,101171.78
2023-01-27T14:13:48.559Z,101183.72
2023-01-27T14:18:11.944Z,101171.78
2023-01-27T14:22:22.229Z,101178.66
2023-01-27T14:26:48.732Z,101172.22
2023-01-27T14:31:14.677Z,101184.03
2023-01-27T14:35:51.285Z,101185.25
2023-01-27T14:40:31.900Z,101194.38
2023-01-27T14:45:03.737Z,101193.28
2023-01-27T14:49:12.342Z,101196.38
2023-01-27T14:53:33.659Z,101193.19
2023-01-27T14:57:48.181Z,101187.78
2023-01-27T15:02:04.536Z,101184.03
2023-01-27T15:06:09.861Z,101200.13
2023-01-27T15:10:22.331Z,101204.75
2023-01-27T15:14:36.317Z,101208.63
2023-01-27T15:18:46.981Z,101208.72
2023-01-27T15:23:07.079Z,101216.91
2023-01-27T15:27:09.964Z,101214.59
2023-01-27T15:31:14.747Z,101216.13
2023-01-27T15:35:23.446Z,101210.06
2023-01-27T15:39:35.692Z,101223.16
2023-01-27T15:44:03.731Z,101214.47
2023-01-27T15:48:15.088Z,101225.28
2023-01-27T15:52:28.769Z,101229.56
2023-01-27T15:56:46.868Z,101224.84
2023-01-27T16:00:54.139Z,101230.00
2023-01-27T16:05:05.310Z,101231.56
2023-01-27T16:09:08.477Z,101243.03
2023-01-27T16:13:25.500Z,101232.31
2023-01-27T16:17:32.715Z,101242.69
2023-01-27T16:21:49.472Z,101244.44
2023-01-27T16:26:00.546Z,101247.66
2023-01-27T16:30:20.844Z,101251.50
2023-01-27T16:34:29.023Z,101249.84
2023-01-27T16:38:39.874Z,101253.38
2023-01-27T16:42:54.411Z,101258.22
2023-01-27T16:47:05.049Z,101263.31
2023-01-27T16:51:19.977Z,101264.19
2023-01-27T16:55:24.652Z,101260.97
2023-01-27T16:59:28.159Z,101269.25
2023-01-27T17:03:38.809Z,101269.91
2023-01-27T17:07:40.459Z,101275.72
2023-01-27T17:11:42.023Z,101277.81
2023-01-27T17:15:44.425Z,101281.03
2023-01-27T17:19:48.345Z,101279.38
2023-01-27T17:23:50.154Z,101283.56
2023-01-27T17:27:52.104Z,101287.50
2023-01-27T17:31:53.809Z,101283.31
2023-01-27T17:35:58.831Z,101275.84
2023-01-27T17:40:05.597Z,101286.84
2023-01-27T17:44:14.424Z,101275.06
2023-01-27T17:48:16.166Z,101282.34
2023-01-27T17:52:21.644Z,101284.09
2023-01-27T17:56:32.584Z,101279.91
2023-01-27T18:00:38.413Z,101289.16
2023-01-27T18:04:42.155Z,101292.34
2023-01-27T18:08:55.300Z,101295.75
2023-01-27T18:13:10.935Z,101301.50
2023-01-27T18:17:24.423Z,101294.66
2023-01-27T18:21:27.480Z,101302.41
2023-01-27T18:25:29.250Z,101296.41
2023-01-27T18:29:36.486Z,101298.44
2023-01-27T18:33:38.428Z,101300.41
2023-01-27T18:37:51.793Z,101299.88
2023-01-27T18:41:54.322Z,101298.09
2023-01-27T18:45:55.933Z,101302.41
2023-01-27T18:50:07.181Z,101313.31
2023-01-27T18:54:12.005Z,101320.38
2023-01-27T18:58:13.579Z,101327.97
2023-01-27T19:02:16.009Z,101320.47
2023-01-27T19:06:18.204Z,101323.88
2023-01-27T19:10:25.392Z,101326.31
2023-01-27T19:14:26.899Z,101337.09
2023-01-27T19:18:32.857Z,101336.09
2023-01-27T19:22:35.042Z,101331.34
2023-01-27T19:26:36.784Z,101337.28
2023-01-27T19:30:39.436Z,101342.47
2023-01-27T19:34:41.272Z,101339.59
2023-01-27T19:38:42.844Z,101349.41
2023-01-27T19:42:44.486Z,101355.50
2023-01-27T19:46:46.098Z,101352.81
2023-01-27T19:50:48.929Z,101356.38
2023-01-27T19:54:50.621Z,101354.25
2023-01-27T19:58:53.544Z,101358.03
2023-01-27T20:02:56.421Z,101359.03
2023-01-27T20:06:58.051Z,101356.50
2023-01-27T20:10:59.769Z,101357.38
2023-01-27T20:15:01.573Z,101355.94
2023-01-27T20:19:03.254Z,101360.50
2023-01-27T20:23:04.989Z,101369.84
2023-01-27T20:27:06.629Z,101368.84
2023-01-27T20:31:12.742Z,101366.44
2023-01-27T20:35:16.414Z,101364.13
2023-01-27T20:39:18.279Z,101368.84
2023-01-27T20:43:33.705Z,101374.81
2023-01-27T20:47:36.726Z,101367.09
2023-01-27T20:51:38.349Z,101369.75
2023-01-27T20:55:39.913Z,101368.97
2023-01-27T20:59:42.029Z,101372.38
2023-01-27T21:03:43.975Z,101363.78
2023-01-27T21:07:45.557Z,101363.44
2023-01-27T21:11:47.156Z,101379.09
2023-01-27T21:15:49.706Z,101388.84
2023-01-27T21:19:51.257Z,101393.94
2023-01-27T21:23:56.556Z,101383.00
2023-01-27T21:27:58.134Z,101384.66
2023-01-27T21:32:00.573Z,101395.59
2023-01-27T21:36:03.178Z,101387.19
2023-01-27T21:40:05.163Z,101388.22
2023-01-27T21:44:40.657Z,101386.56
2023-01-27T21:48:42.322Z,101395.16
2023-01-27T21:52:45.917Z,101388.91
2023-01-27T21:56:47.569Z,101388.16
2023-01-27T22:00:49.232Z,101405.75
2023-01-27T22:04:51.038Z,101403.13
2023-01-27T22:08:52.721Z,101404.09
2023-01-27T22:13:03.862Z,101402.59
2023-01-27T22:17:05.517Z,101405.13
2023-01-27T22:21:07.199Z,101400.81
2023-01-27T22:25:10.559Z,101390.56
2023-01-27T22:29:12.315Z,101395.19
2023-01-27T22:33:14.641Z,101396.22
2023-01-27T22:37:16.437Z,101408.66
2023-01-27T22:41:18.076Z,101410.41
2023-01-27T22:45:19.949Z,101409.63
2023-01-27T22:49:21.502Z,101407.00
2023-01-27T22:53:23.629Z,101402.59
2023-01-27T22:57:30.073Z,101391.44
2023-01-27T23:01:31.765Z,101397.50
2023-01-27T23:05:33.897Z,101393.69
2023-01-27T23:09:35.455Z,101392.25
2023-01-27T23:13:37.039Z,101390.72
2023-01-27T23:17:38.676Z,101391.59
2023-01-27T23:21:40.232Z,101399.19
2023-01-27T23:25:46.786Z,101396.88
2023-01-27T23:29:48.327Z,101392.69
2023-01-27T23:33:49.909Z,101396.16
2023-01-27T23:37:51.501Z,101405.38
2023-01-27T23:41:53.029Z,101396.78
2023-01-27T23:45:54.924Z,101395.00
2023-01-27T23:49:56.593Z,101399.97
2023-01-27T23:53:58.179Z,101397.22
2023-01-27T23:57:59.712Z,101399.50
